sensor_id;sensor_type;location;lat;lon;timestamp;temperature;humidity
37242;DHT22;23135;51.078;12.108;2024-03-23T00:53:46;7.80;99.90
37242;DHT22;23135;51.078;12.108;2024-03-23T00:56:12;7.80;99.90
37242;DHT22;23135;51.078;12.108;2024-03-23T00:58:38;7.80;99.90
37242;DHT22;23135;51.078;12.108;2024-03-23T01:01:03;7.80;99.90
37242;DHT22;23135;51.078;12.108;2024-03-23T01:03:29;7.80;99.90
37242;DHT22;23135;51.078;12.108;2024-03-23T01:05:59;7.90;99.90
37242;DHT22;23135;51.078;12.108;2024-03-23T01:08:25;7.90;99.90
37242;DHT22;23135;51.078;12.108;2024-03-23T01:11:00;8.00;99.90
37242;DHT22;23135;51.078;12.108;2024-03-23T01:13:27;8.00;99.90
37242;DHT22;23135;51.078;12.108;2024-03-23T01:15:53;8.10;99.90
37242;DHT22;23135;51.078;12.108;2024-03-23T01:18:20;8.10;99.90
37242;DHT22;23135;51.078;12.108;2024-03-23T01:20:46;8.20;99.90
37242;DHT22;23135;51.078;12.108;2024-03-23T01:23:12;8.30;99.90
37242;DHT22;23135;51.078;12.108;2024-03-23T01:25:38;8.40;99.90
37242;DHT22;23135;51.078;12.108;2024-03-23T01:28:04;8.50;99.90
37242;DHT22;23135;51.078;12.108;2024-03-23T01:30:31;8.50;99.90
37242;DHT22;23135;51.078;12.108;2024-03-23T01:32:57;8.50;99.90
37242;DHT22;23135;51.078;12.108;2024-03-23T01:35:22;8.50;99.90
37242;DHT22;23135;51.078;12.108;2024-03-23T01:37:48;8.60;99.90
37242;DHT22;23135;51.078;12.108;2024-03-23T01:40:15;8.60;99.90
37242;DHT22;23135;51.078;12.108;2024-03-23T01:42:41;8.60;99.90
37242;DHT22;23135;51.078;12.108;2024-03-23T01:45:08;8.70;99.90
37242;DHT22;23135;51.078;12.108;2024-03-23T01:47:34;8.70;99.90
37242;DHT22;23135;51.078;12.108;2024-03-23T01:49:59;8.70;99.90
37242;DHT22;23135;51.078;12.108;2024-03-23T01:52:28;8.70;99.90
37242;DHT22;23135;51.078;12.108;2024-03-23T01:54:55;8.70;99.90
37242;DHT22;23135;51.078;12.108;2024-03-23T01:57:21;8.80;99.90
37242;DHT22;23135;51.078;12.108;2024-03-23T01:59:47;8.80;99.90
37242;DHT22;23135;51.078;12.108;2024-03-23T02:02:13;8.80;99.90
37242;DHT22;23135;51.078;12.108;2024-03-23T02:04:38;8.80;99.90
37242;DHT22;23135;51.078;12.108;2024-03-23T02:07:06;8.70;99.90
37242;DHT22;23135;51.078;12.108;2024-03-23T02:09:32;8.60;99.90
37242;DHT22;23135;51.078;12.108;2024-03-23T02:11:58;8.50;99.90
37242;DHT22;23135;51.078;12.108;2024-03-23T02:14:24;8.50;99.90
37242;DHT22;23135;51.078;12.108;2024-03-23T02:16:49;8.50;99.90
37242;DHT22;23135;51.078;12.108;2024-03-23T02:19:15;8.50;99.90
37242;DHT22;23135;51.078;12.108;2024-03-23T02:21:40;8.50;99.90
37242;DHT22;23135;51.078;12.108;2024-03-23T02:24:06;8.50;99.90
37242;DHT22;23135;51.078;12.108;2024-03-23T02:26:31;8.50;99.90
37242;DHT22;23135;51.078;12.108;2024-03-23T02:28:57;8.50;99.90
37242;DHT22;23135;51.078;12.108;2024-03-23T02:31:23;8.50;99.90
37242;DHT22;23135;51.078;12.108;2024-03-23T02:33:48;8.50;99.90
37242;DHT22;23135;51.078;12.108;2024-03-23T02:36:14;8.60;99.90
37242;DHT22;23135;51.078;12.108;2024-03-23T02:38:39;8.50;99.90
37242;DHT22;23135;51.078;12.108;2024-03-23T02:41:05;8.50;99.90
37242;DHT22;23135;51.078;12.108;2024-03-23T02:43:31;8.50;99.90
37242;DHT22;23135;51.078;12.108;2024-03-23T02:45:56;8.50;99.90
37242;DHT22;23135;51.078;12.108;2024-03-23T02:48:22;8.40;99.90
37242;DHT22;23135;51.078;12.108;2024-03-23T02:50:50;8.40;99.90
37242;DHT22;23135;51.078;12.108;2024-03-23T02:53:16;8.30;99.90
37242;DHT22;23135;51.078;12.108;2024-03-23T02:55:41;8.30;99.90
37242;DHT22;23135;51.078;12.108;2024-03-23T02:58:07;8.30;99.90
37242;DHT22;23135;51.078;12.108;2024-03-23T03:00:32;8.30;99.90
37242;DHT22;23135;51.078;12.108;2024-03-23T03:02:58;8.30;99.90
37242;DHT22;23135;51.078;12.108;2024-03-23T03:05:23;8.30;99.90
37242;DHT22;23135;51.078;12.108;2024-03-23T03:07:49;8.30;99.90
37242;DHT22;23135;51.078;12.108;2024-03-23T03:10:14;8.30;99.90
37242;DHT22;23135;51.078;12.108;2024-03-23T03:12:40;8.30;99.90
37242;DHT22;23135;51.078;12.108;2024-03-23T03:15:06;8.30;99.90
37242;DHT22;23135;51.078;12.108;2024-03-23T03:17:33;8.30;99.90
37242;DHT22;23135;51.078;12.108;2024-03-23T03:19:58;8.30;99.90
37242;DHT22;23135;51.078;12.108;2024-03-23T03:22:25;8.30;99.90
37242;DHT22;23135;51.078;12.108;2024-03-23T03:24:50;8.20;99.90
37242;DHT22;23135;51.078;12.108;2024-03-23T03:27:16;8.20;99.90
37242;DHT22;23135;51.078;12.108;2024-03-23T03:29:41;8.20;99.90
37242;DHT22;23135;51.078;12.108;2024-03-23T03:32:07;8.10;99.90
37242;DHT22;23135;51.078;12.108;2024-03-23T03:34:33;8.10;99.90
37242;DHT22;23135;51.078;12.108;2024-03-23T03:36:58;8.10;99.90
37242;DHT22;23135;51.078;12.108;2024-03-23T03:39:25;8.10;99.90
37242;DHT22;23135;51.078;12.108;2024-03-23T03:41:50;8.00;99.90
37242;DHT22;23135;51.078;12.108;2024-03-23T03:44:16;8.10;99.90
37242;DHT22;23135;51.078;12.108;2024-03-23T03:46:42;8.00;99.90
37242;DHT22;23135;51.078;12.108;2024-03-23T03:49:08;8.00;99.90
37242;DHT22;23135;51.078;12.108;2024-03-23T03:51:33;8.00;99.90
37242;DHT22;23135;51.078;12.108;2024-03-23T03:53:59;8.00;99.90
37242;DHT22;23135;51.078;12.108;2024-03-23T03:56:25;8.00;99.90
37242;DHT22;23135;51.078;12.108;2024-03-23T03:58:51;8.00;99.90
37242;DHT22;23135;51.078;12.108;2024-03-23T04:01:16;8.00;99.90
37242;DHT22;23135;51.078;12.108;2024-03-23T04:03:43;8.00;99.90
37242;DHT22;23135;51.078;12.108;2024-03-23T04:06:09;7.90;99.90
37242;DHT22;23135;51.078;12.108;2024-03-23T04:08:35;7.90;99.90
37242;DHT22;23135;51.078;12.108;2024-03-23T04:11:01;7.90;99.90
37242;DHT22;23135;51.078;12.108;2024-03-23T04:13:27;7.90;99.90
37242;DHT22;23135;51.078;12.108;2024-03-23T04:15:56;7.90;99.90
37242;DHT22;23135;51.078;12.108;2024-03-23T04:18:22;7.90;99.90
37242;DHT22;23135;51.078;12.108;2024-03-23T04:20:51;7.90;99.90
37242;DHT22;23135;51.078;12.108;2024-03-23T04:23:17;7.90;99.90
37242;DHT22;23135;51.078;12.108;2024-03-23T04:25:42;7.90;99.90
37242;DHT22;23135;51.078;12.108;2024-03-23T04:28:08;7.90;99.90
37242;DHT22;23135;51.078;12.108;2024-03-23T04:30:34;7.80;99.90
37242;DHT22;23135;51.078;12.108;2024-03-23T04:32:59;7.80;99.90
37242;DHT22;23135;51.078;12.108;2024-03-23T04:35:26;7.80;99.90
37242;DHT22;23135;51.078;12.108;2024-03-23T04:37:52;7.80;99.90
37242;DHT22;23135;51.078;12.108;2024-03-23T04:40:18;7.80;99.90
37242;DHT22;23135;51.078;12.108;2024-03-23T04:42:44;7.80;99.90
37242;DHT22;23135;51.078;12.108;2024-03-23T04:45:10;7.80;99.90
37242;DHT22;23135;51.078;12.108;2024-03-23T04:47:37;7.80;99.90
37242;DHT22;23135;51.078;12.108;2024-03-23T04:50:03;7.80;99.90
37242;DHT22;23135;51.078;12.108;2024-03-23T04:52:29;7.80;99.90
37242;DHT22;23135;51.078;12.108;2024-03-23T04:54:55;7.80;99.90
37242;DHT22;23135;51.078;12.108;2024-03-23T04:57:21;7.70;99.90
37242;DHT22;23135;51.078;12.108;2024-03-23T04:59:46;7.70;99.90
37242;DHT22;23135;51.078;12.108;2024-03-23T05:02:13;7.70;99.90
37242;DHT22;23135;51.078;12.108;2024-03-23T05:04:38;7.70;99.90
37242;DHT22;23135;51.078;12.108;2024-03-23T05:07:04;7.70;99.90
37242;DHT22;23135;51.078;12.108;2024-03-23T05:09:30;7.60;99.90
37242;DHT22;23135;51.078;12.108;2024-03-23T05:11:56;7.70;99.90
37242;DHT22;23135;51.078;12.108;2024-03-23T05:14:22;7.70;99.90
37242;DHT22;23135;51.078;12.108;2024-03-23T05:16:48;7.60;99.90
37242;DHT22;23135;51.078;12.108;2024-03-23T05:19:13;7.70;99.90
37242;DHT22;23135;51.078;12.108;2024-03-23T05:21:39;7.70;99.90
37242;DHT22;23135;51.078;12.108;2024-03-23T05:24:05;7.60;99.90
37242;DHT22;23135;51.078;12.108;2024-03-23T05:26:30;7.60;99.90
37242;DHT22;23135;51.078;12.108;2024-03-23T05:28:56;7.70;99.90
37242;DHT22;23135;51.078;12.108;2024-03-23T05:31:26;7.60;99.90
37242;DHT22;23135;51.078;12.108;2024-03-23T05:33:52;7.60;99.90
37242;DHT22;23135;51.078;12.108;2024-03-23T05:36:18;7.60;99.90
37242;DHT22;23135;51.078;12.108;2024-03-23T05:38:44;7.60;99.90
37242;DHT22;23135;51.078;12.108;2024-03-23T05:41:09;7.60;99.90
37242;DHT22;23135;51.078;12.108;2024-03-23T05:43:35;7.60;99.90
37242;DHT22;23135;51.078;12.108;2024-03-23T05:46:01;7.60;99.90
37242;DHT22;23135;51.078;12.108;2024-03-23T05:48:27;7.70;99.90
37242;DHT22;23135;51.078;12.108;2024-03-23T05:50:53;7.70;99.90
37242;DHT22;23135;51.078;12.108;2024-03-23T05:53:19;7.60;99.90
37242;DHT22;23135;51.078;12.108;2024-03-23T05:55:48;7.60;99.90
37242;DHT22;23135;51.078;12.108;2024-03-23T05:58:15;7.60;99.90
37242;DHT22;23135;51.078;12.108;2024-03-23T06:00:41;7.60;99.90
37242;DHT22;23135;51.078;12.108;2024-03-23T06:03:08;7.60;99.90
37242;DHT22;23135;51.078;12.108;2024-03-23T06:05:34;7.60;99.90
37242;DHT22;23135;51.078;12.108;2024-03-23T06:07:59;7.60;99.90
37242;DHT22;23135;51.078;12.108;2024-03-23T06:10:25;7.60;99.90
37242;DHT22;23135;51.078;12.108;2024-03-23T06:12:50;7.60;99.90
37242;DHT22;23135;51.078;12.108;2024-03-23T06:15:18;7.60;99.90
37242;DHT22;23135;51.078;12.108;2024-03-23T06:17:44;7.60;99.90
37242;DHT22;23135;51.078;12.108;2024-03-23T06:20:10;7.60;99.90
37242;DHT22;23135;51.078;12.108;2024-03-23T06:22:36;7.50;99.90
37242;DHT22;23135;51.078;12.108;2024-03-23T06:25:02;7.60;99.90
37242;DHT22;23135;51.078;12.108;2024-03-23T06:27:28;7.60;99.90
37242;DHT22;23135;51.078;12.108;2024-03-23T06:29:53;7.60;99.90
37242;DHT22;23135;51.078;12.108;2024-03-23T06:32:20;7.60;99.90
37242;DHT22;23135;51.078;12.108;2024-03-23T06:34:46;7.60;99.90
37242;DHT22;23135;51.078;12.108;2024-03-23T06:37:12;7.60;99.90
37242;DHT22;23135;51.078;12.108;2024-03-23T06:39:37;7.60;99.90
37242;DHT22;23135;51.078;12.108;2024-03-23T06:42:03;7.60;99.90
37242;DHT22;23135;51.078;12.108;2024-03-23T06:44:29;7.60;99.90
37242;DHT22;23135;51.078;12.108;2024-03-23T06:46:58;7.60;99.90
37242;DHT22;23135;51.078;12.108;2024-03-23T06:49:24;7.60;99.90
37242;DHT22;23135;51.078;12.108;2024-03-23T06:51:50;7.60;99.90
37242;DHT22;23135;51.078;12.108;2024-03-23T06:54:19;7.60;99.90
37242;DHT22;23135;51.078;12.108;2024-03-23T06:56:45;7.60;99.90
37242;DHT22;23135;51.078;12.108;2024-03-23T06:59:10;7.60;99.90
37242;DHT22;23135;51.078;12.108;2024-03-23T07:01:36;7.70;99.90
37242;DHT22;23135;51.078;12.108;2024-03-23T07:04:02;7.70;99.90
37242;DHT22;23135;51.078;12.108;2024-03-23T07:06:29;7.80;99.90
37242;DHT22;23135;51.078;12.108;2024-03-23T07:08:56;7.90;99.90
37242;DHT22;23135;51.078;12.108;2024-03-23T07:11:22;7.90;99.90
37242;DHT22;23135;51.078;12.108;2024-03-23T07:13:51;7.90;99.90
37242;DHT22;23135;51.078;12.108;2024-03-23T07:16:17;8.00;99.90
37242;DHT22;23135;51.078;12.108;2024-03-23T07:18:43;8.00;99.90
37242;DHT22;23135;51.078;12.108;2024-03-23T07:21:09;8.10;99.90
37242;DHT22;23135;51.078;12.108;2024-03-23T07:23:35;8.10;99.90
37242;DHT22;23135;51.078;12.108;2024-03-23T07:26:04;8.10;99.90
37242;DHT22;23135;51.078;12.108;2024-03-23T07:28:33;8.10;99.90
37242;DHT22;23135;51.078;12.108;2024-03-23T07:31:05;8.10;99.90
37242;DHT22;23135;51.078;12.108;2024-03-23T07:33:32;8.00;99.90
37242;DHT22;23135;51.078;12.108;2024-03-23T07:35:58;8.00;99.90
37242;DHT22;23135;51.078;12.108;2024-03-23T07:38:28;7.90;99.90
37242;DHT22;23135;51.078;12.108;2024-03-23T07:41:11;7.70;99.90
37242;DHT22;23135;51.078;12.108;2024-03-23T07:43:37;7.60;99.90
37242;DHT22;23135;51.078;12.108;2024-03-23T07:46:04;7.50;99.90
37242;DHT22;23135;51.078;12.108;2024-03-23T07:48:30;7.40;99.90
37242;DHT22;23135;51.078;12.108;2024-03-23T07:53:25;6.70;99.90
37242;DHT22;23135;51.078;12.108;2024-03-23T07:56:02;6.30;99.90
37242;DHT22;23135;51.078;12.108;2024-03-23T07:58:28;5.80;99.90
37242;DHT22;23135;51.078;12.108;2024-03-23T08:00:55;5.50;99.90
37242;DHT22;23135;51.078;12.108;2024-03-23T08:03:21;5.10;99.90
37242;DHT22;23135;51.078;12.108;2024-03-23T08:05:46;4.90;99.90
37242;DHT22;23135;51.078;12.108;2024-03-23T08:08:12;4.80;99.90
37242;DHT22;23135;51.078;12.108;2024-03-23T08:10:48;4.80;99.90
37242;DHT22;23135;51.078;12.108;2024-03-23T08:13:13;4.70;99.90
37242;DHT22;23135;51.078;12.108;2024-03-23T08:15:39;4.60;99.90
37242;DHT22;23135;51.078;12.108;2024-03-23T08:18:04;4.60;99.90
37242;DHT22;23135;51.078;12.108;2024-03-23T08:20:30;4.50;99.90
37242;DHT22;23135;51.078;12.108;2024-03-23T08:22:55;4.50;99.90
37242;DHT22;23135;51.078;12.108;2024-03-23T08:25:21;4.40;99.90
37242;DHT22;23135;51.078;12.108;2024-03-23T08:27:47;4.40;99.90
37242;DHT22;23135;51.078;12.108;2024-03-23T08:30:13;4.40;99.90
37242;DHT22;23135;51.078;12.108;2024-03-23T08:32:38;4.30;99.90
37242;DHT22;23135;51.078;12.108;2024-03-23T08:35:04;4.20;99.90
37242;DHT22;23135;51.078;12.108;2024-03-23T08:37:30;4.20;99.90
37242;DHT22;23135;51.078;12.108;2024-03-23T08:39:55;4.20;99.90
37242;DHT22;23135;51.078;12.108;2024-03-23T08:42:21;4.20;99.90
37242;DHT22;23135;51.078;12.108;2024-03-23T08:44:47;4.20;99.90
37242;DHT22;23135;51.078;12.108;2024-03-23T08:47:15;4.10;99.90
37242;DHT22;23135;51.078;12.108;2024-03-23T08:49:41;4.10;99.90
37242;DHT22;23135;51.078;12.108;2024-03-23T08:52:07;4.10;99.90
37242;DHT22;23135;51.078;12.108;2024-03-23T08:54:33;4.10;99.90
37242;DHT22;23135;51.078;12.108;2024-03-23T08:56:59;4.10;99.90
37242;DHT22;23135;51.078;12.108;2024-03-23T08:59:25;4.00;99.90
37242;DHT22;23135;51.078;12.108;2024-03-23T09:01:51;4.00;99.90
37242;DHT22;23135;51.078;12.108;2024-03-23T09:04:16;4.00;99.90
37242;DHT22;23135;51.078;12.108;2024-03-23T09:06:43;4.10;99.90
37242;DHT22;23135;51.078;12.108;2024-03-23T09:09:08;4.10;99.90
37242;DHT22;23135;51.078;12.108;2024-03-23T09:11:34;4.10;99.90
37242;DHT22;23135;51.078;12.108;2024-03-23T09:13:59;4.10;99.90
37242;DHT22;23135;51.078;12.108;2024-03-23T09:16:25;4.10;99.90
37242;DHT22;23135;51.078;12.108;2024-03-23T09:18:52;4.20;99.90
37242;DHT22;23135;51.078;12.108;2024-03-23T09:21:18;4.20;99.90
37242;DHT22;23135;51.078;12.108;2024-03-23T09:23:44;4.20;99.90
37242;DHT22;23135;51.078;12.108;2024-03-23T09:26:09;4.10;99.90
37242;DHT22;23135;51.078;12.108;2024-03-23T09:28:35;4.10;99.90
37242;DHT22;23135;51.078;12.108;2024-03-23T09:31:05;3.90;99.90
37242;DHT22;23135;51.078;12.108;2024-03-23T09:33:31;3.90;99.90
37242;DHT22;23135;51.078;12.108;2024-03-23T09:35:56;3.90;99.90
37242;DHT22;23135;51.078;12.108;2024-03-23T09:38:23;4.00;99.90
37242;DHT22;23135;51.078;12.108;2024-03-23T09:40:52;4.00;99.90
37242;DHT22;23135;51.078;12.108;2024-03-23T09:43:19;4.00;99.90
37242;DHT22;23135;51.078;12.108;2024-03-23T09:45:45;4.10;99.90
37242;DHT22;23135;51.078;12.108;2024-03-23T09:48:11;4.10;99.90
37242;DHT22;23135;51.078;12.108;2024-03-23T09:50:41;4.10;99.90
37242;DHT22;23135;51.078;12.108;2024-03-23T09:53:08;4.00;99.90
37242;DHT22;23135;51.078;12.108;2024-03-23T09:55:35;4.00;99.90
37242;DHT22;23135;51.078;12.108;2024-03-23T09:58:04;3.90;99.90
37242;DHT22;23135;51.078;12.108;2024-03-23T10:00:34;3.90;99.90
37242;DHT22;23135;51.078;12.108;2024-03-23T10:03:00;4.00;99.90
37242;DHT22;23135;51.078;12.108;2024-03-23T10:05:30;4.00;99.90
37242;DHT22;23135;51.078;12.108;2024-03-23T10:07:57;4.00;99.90
37242;DHT22;23135;51.078;12.108;2024-03-23T10:10:25;4.00;99.90
37242;DHT22;23135;51.078;12.108;2024-03-23T10:12:51;3.90;99.90
37242;DHT22;23135;51.078;12.108;2024-03-23T10:15:22;3.90;99.90
37242;DHT22;23135;51.078;12.108;2024-03-23T10:17:49;3.90;99.90
37242;DHT22;23135;51.078;12.108;2024-03-23T10:20:22;3.90;99.90
37242;DHT22;23135;51.078;12.108;2024-03-23T10:22:50;3.90;99.90
37242;DHT22;23135;51.078;12.108;2024-03-23T10:25:24;4.00;99.90
37242;DHT22;23135;51.078;12.108;2024-03-23T10:28:00;4.10;99.90
37242;DHT22;23135;51.078;12.108;2024-03-23T10:30:26;4.10;99.90
37242;DHT22;23135;51.078;12.108;2024-03-23T10:33:10;4.10;99.90
37242;DHT22;23135;51.078;12.108;2024-03-23T10:35:36;4.20;99.90
37242;DHT22;23135;51.078;12.108;2024-03-23T10:38:05;4.30;99.90
37242;DHT22;23135;51.078;12.108;2024-03-23T10:40:31;4.40;99.90
37242;DHT22;23135;51.078;12.108;2024-03-23T10:42:58;4.30;99.90
37242;DHT22;23135;51.078;12.108;2024-03-23T10:45:24;4.40;99.90
37242;DHT22;23135;51.078;12.108;2024-03-23T10:47:49;4.40;99.90
37242;DHT22;23135;51.078;12.108;2024-03-23T10:50:15;4.40;99.90
37242;DHT22;23135;51.078;12.108;2024-03-23T10:52:46;4.40;99.90
37242;DHT22;23135;51.078;12.108;2024-03-23T10:55:14;4.50;99.90
37242;DHT22;23135;51.078;12.108;2024-03-23T10:57:48;4.50;99.90
37242;DHT22;23135;51.078;12.108;2024-03-23T11:00:15;4.60;99.90
37242;DHT22;23135;51.078;12.108;2024-03-23T11:02:41;4.60;99.90
37242;DHT22;23135;51.078;12.108;2024-03-23T11:07:51;4.70;99.90
37242;DHT22;23135;51.078;12.108;2024-03-23T11:10:25;4.80;99.90
37242;DHT22;23135;51.078;12.108;2024-03-23T11:12:52;4.80;99.90
37242;DHT22;23135;51.078;12.108;2024-03-23T11:15:18;4.90;99.90
37242;DHT22;23135;51.078;12.108;2024-03-23T11:18:02;4.90;99.90
37242;DHT22;23135;51.078;12.108;2024-03-23T11:20:32;5.00;99.90
37242;DHT22;23135;51.078;12.108;2024-03-23T11:22:59;5.10;99.90
37242;DHT22;23135;51.078;12.108;2024-03-23T11:25:26;5.10;99.90
37242;DHT22;23135;51.078;12.108;2024-03-23T11:27:56;5.20;99.90
37242;DHT22;23135;51.078;12.108;2024-03-23T11:30:25;5.20;99.90
37242;DHT22;23135;51.078;12.108;2024-03-23T11:32:53;5.40;99.90
37242;DHT22;23135;51.078;12.108;2024-03-23T11:35:29;5.80;99.90
37242;DHT22;23135;51.078;12.108;2024-03-23T11:38:15;5.80;99.90
37242;DHT22;23135;51.078;12.108;2024-03-23T11:40:47;5.70;99.90
37242;DHT22;23135;51.078;12.108;2024-03-23T11:43:15;6.00;99.90
37242;DHT22;23135;51.078;12.108;2024-03-23T11:48:13;6.80;99.90
37242;DHT22;23135;51.078;12.108;2024-03-23T11:50:41;6.60;99.90
37242;DHT22;23135;51.078;12.108;2024-03-23T11:55:49;7.20;99.90
37242;DHT22;23135;51.078;12.108;2024-03-23T11:58:16;7.50;99.90
37242;DHT22;23135;51.078;12.108;2024-03-23T12:00:42;7.60;99.90
37242;DHT22;23135;51.078;12.108;2024-03-23T12:03:08;7.60;99.90
37242;DHT22;23135;51.078;12.108;2024-03-23T12:05:36;7.50;99.90
37242;DHT22;23135;51.078;12.108;2024-03-23T12:08:15;7.50;99.90
37242;DHT22;23135;51.078;12.108;2024-03-23T12:10:44;7.40;99.90
37242;DHT22;23135;51.078;12.108;2024-03-23T12:13:10;7.30;99.90
37242;DHT22;23135;51.078;12.108;2024-03-23T12:15:36;7.50;99.90
37242;DHT22;23135;51.078;12.108;2024-03-23T12:18:09;7.80;99.90
37242;DHT22;23135;51.078;12.108;2024-03-23T12:20:35;7.70;99.90
37242;DHT22;23135;51.078;12.108;2024-03-23T12:23:06;7.40;99.90
37242;DHT22;23135;51.078;12.108;2024-03-23T12:25:31;7.50;99.90
37242;DHT22;23135;51.078;12.108;2024-03-23T12:28:00;7.50;99.90
37242;DHT22;23135;51.078;12.108;2024-03-23T12:30:25;7.80;99.90
37242;DHT22;23135;51.078;12.108;2024-03-23T12:32:51;8.20;99.90
37242;DHT22;23135;51.078;12.108;2024-03-23T12:35:17;8.50;99.90
37242;DHT22;23135;51.078;12.108;2024-03-23T12:37:43;9.00;99.90
37242;DHT22;23135;51.078;12.108;2024-03-23T12:40:09;9.40;99.90
37242;DHT22;23135;51.078;12.108;2024-03-23T12:42:35;9.30;99.90
37242;DHT22;23135;51.078;12.108;2024-03-23T12:45:01;9.60;99.90
37242;DHT22;23135;51.078;12.108;2024-03-23T12:47:26;9.90;99.90
37242;DHT22;23135;51.078;12.108;2024-03-23T12:49:52;9.30;99.90
37242;DHT22;23135;51.078;12.108;2024-03-23T12:52:18;9.50;99.90
37242;DHT22;23135;51.078;12.108;2024-03-23T12:54:45;9.30;99.90
37242;DHT22;23135;51.078;12.108;2024-03-23T12:57:10;9.20;99.90
37242;DHT22;23135;51.078;12.108;2024-03-23T12:59:36;9.70;99.90
37242;DHT22;23135;51.078;12.108;2024-03-23T13:02:02;9.90;99.90
37242;DHT22;23135;51.078;12.108;2024-03-23T13:04:28;10.10;99.90
37242;DHT22;23135;51.078;12.108;2024-03-23T13:06:53;10.20;99.90
37242;DHT22;23135;51.078;12.108;2024-03-23T13:09:19;10.60;99.90
37242;DHT22;23135;51.078;12.108;2024-03-23T13:11:44;10.40;99.90
37242;DHT22;23135;51.078;12.108;2024-03-23T13:14:10;10.20;99.90
37242;DHT22;23135;51.078;12.108;2024-03-23T13:16:35;10.50;99.90
37242;DHT22;23135;51.078;12.108;2024-03-23T13:19:01;10.70;99.90
37242;DHT22;23135;51.078;12.108;2024-03-23T13:21:26;10.80;99.90
37242;DHT22;23135;51.078;12.108;2024-03-23T13:23:52;10.70;99.90
37242;DHT22;23135;51.078;12.108;2024-03-23T13:26:18;10.70;99.90
37242;DHT22;23135;51.078;12.108;2024-03-23T13:28:43;10.50;99.90
37242;DHT22;23135;51.078;12.108;2024-03-23T13:31:10;10.60;99.90
37242;DHT22;23135;51.078;12.108;2024-03-23T13:33:35;10.80;99.90
37242;DHT22;23135;51.078;12.108;2024-03-23T13:36:01;10.90;99.90
37242;DHT22;23135;51.078;12.108;2024-03-23T13:38:28;10.70;99.90
37242;DHT22;23135;51.078;12.108;2024-03-23T13:43:21;10.50;99.90
37242;DHT22;23135;51.078;12.108;2024-03-23T13:45:48;10.50;99.90
37242;DHT22;23135;51.078;12.108;2024-03-23T13:48:17;10.40;99.90
37242;DHT22;23135;51.078;12.108;2024-03-23T13:50:44;10.40;99.90
37242;DHT22;23135;51.078;12.108;2024-03-23T13:53:09;10.50;99.90
37242;DHT22;23135;51.078;12.108;2024-03-23T13:55:35;10.50;99.90
37242;DHT22;23135;51.078;12.108;2024-03-23T13:58:01;10.40;99.90
37242;DHT22;23135;51.078;12.108;2024-03-23T14:00:27;10.30;99.90
37242;DHT22;23135;51.078;12.108;2024-03-23T14:02:53;10.50;99.90
37242;DHT22;23135;51.078;12.108;2024-03-23T14:05:19;10.60;99.90
37242;DHT22;23135;51.078;12.108;2024-03-23T14:07:45;10.20;99.90
37242;DHT22;23135;51.078;12.108;2024-03-23T14:10:10;10.40;99.90
37242;DHT22;23135;51.078;12.108;2024-03-23T14:12:36;10.60;99.90
37242;DHT22;23135;51.078;12.108;2024-03-23T14:15:05;10.60;99.90
37242;DHT22;23135;51.078;12.108;2024-03-23T14:17:31;10.60;99.90
37242;DHT22;23135;51.078;12.108;2024-03-23T14:19:57;10.70;99.90
37242;DHT22;23135;51.078;12.108;2024-03-23T14:22:29;10.80;99.90
37242;DHT22;23135;51.078;12.108;2024-03-23T14:24:54;10.90;99.90
37242;DHT22;23135;51.078;12.108;2024-03-23T14:27:20;10.90;99.90
37242;DHT22;23135;51.078;12.108;2024-03-23T14:29:47;10.80;99.90
37242;DHT22;23135;51.078;12.108;2024-03-23T14:32:13;10.80;99.90
37242;DHT22;23135;51.078;12.108;2024-03-23T14:34:38;10.70;99.90
37242;DHT22;23135;51.078;12.108;2024-03-23T14:37:04;10.70;99.90
37242;DHT22;23135;51.078;12.108;2024-03-23T14:39:30;10.80;99.90
37242;DHT22;23135;51.078;12.108;2024-03-23T14:41:56;10.40;99.90
37242;DHT22;23135;51.078;12.108;2024-03-23T14:44:22;9.80;99.90
37242;DHT22;23135;51.078;12.108;2024-03-23T14:46:49;8.50;99.90
37242;DHT22;23135;51.078;12.108;2024-03-23T14:49:15;7.50;99.90
37242;DHT22;23135;51.078;12.108;2024-03-23T14:51:43;6.80;99.90
37242;DHT22;23135;51.078;12.108;2024-03-23T14:54:09;6.40;99.90
37242;DHT22;23135;51.078;12.108;2024-03-23T14:56:35;6.50;99.90
37242;DHT22;23135;51.078;12.108;2024-03-23T14:59:01;6.40;99.90
37242;DHT22;23135;51.078;12.108;2024-03-23T15:01:26;6.20;99.90
37242;DHT22;23135;51.078;12.108;2024-03-23T15:03:52;6.00;99.90
37242;DHT22;23135;51.078;12.108;2024-03-23T15:06:19;6.00;99.90
37242;DHT22;23135;51.078;12.108;2024-03-23T15:08:45;5.90;99.90
37242;DHT22;23135;51.078;12.108;2024-03-23T15:11:10;5.80;99.90
37242;DHT22;23135;51.078;12.108;2024-03-23T15:13:37;5.80;99.90
37242;DHT22;23135;51.078;12.108;2024-03-23T15:16:03;5.80;99.90
37242;DHT22;23135;51.078;12.108;2024-03-23T15:18:30;5.90;99.90
37242;DHT22;23135;51.078;12.108;2024-03-23T15:20:56;6.10;99.90
37242;DHT22;23135;51.078;12.108;2024-03-23T15:23:22;6.50;99.90
37242;DHT22;23135;51.078;12.108;2024-03-23T15:25:55;7.00;99.90
37242;DHT22;23135;51.078;12.108;2024-03-23T15:28:22;7.40;99.90
37242;DHT22;23135;51.078;12.108;2024-03-23T15:30:48;7.70;99.90
37242;DHT22;23135;51.078;12.108;2024-03-23T15:33:14;7.80;99.90
37242;DHT22;23135;51.078;12.108;2024-03-23T15:35:39;7.70;99.90
37242;DHT22;23135;51.078;12.108;2024-03-23T15:38:05;7.70;99.90
37242;DHT22;23135;51.078;12.108;2024-03-23T15:40:30;7.60;99.90
37242;DHT22;23135;51.078;12.108;2024-03-23T15:42:56;7.40;99.90
37242;DHT22;23135;51.078;12.108;2024-03-23T15:45:21;7.20;99.90
37242;DHT22;23135;51.078;12.108;2024-03-23T15:47:47;7.20;99.90
37242;DHT22;23135;51.078;12.108;2024-03-23T15:50:13;7.20;99.90
37242;DHT22;23135;51.078;12.108;2024-03-23T15:52:38;7.20;99.90
37242;DHT22;23135;51.078;12.108;2024-03-23T15:55:04;7.30;99.90
37242;DHT22;23135;51.078;12.108;2024-03-23T15:57:34;7.20;99.90
37242;DHT22;23135;51.078;12.108;2024-03-23T16:00:03;7.20;99.90
37242;DHT22;23135;51.078;12.108;2024-03-23T16:02:29;7.20;99.90
37242;DHT22;23135;51.078;12.108;2024-03-23T16:04:55;7.30;99.90
37242;DHT22;23135;51.078;12.108;2024-03-23T16:07:21;7.30;99.90
37242;DHT22;23135;51.078;12.108;2024-03-23T16:09:46;7.20;99.90
37242;DHT22;23135;51.078;12.108;2024-03-23T16:12:12;7.30;99.90
37242;DHT22;23135;51.078;12.108;2024-03-23T16:14:37;7.40;99.90
37242;DHT22;23135;51.078;12.108;2024-03-23T16:17:03;7.30;99.90
37242;DHT22;23135;51.078;12.108;2024-03-23T16:19:28;7.30;99.90
37242;DHT22;23135;51.078;12.108;2024-03-23T16:21:54;7.20;99.90
37242;DHT22;23135;51.078;12.108;2024-03-23T16:24:21;7.20;99.90
37242;DHT22;23135;51.078;12.108;2024-03-23T16:26:46;7.30;99.90
37242;DHT22;23135;51.078;12.108;2024-03-23T16:29:12;7.30;99.90
37242;DHT22;23135;51.078;12.108;2024-03-23T16:31:37;7.20;99.90